Time;durP1;ratioP1;P1;durP2;ratioP2;P2;SDS_P1;SDS_P2;PMS_P1;PMS_P2;Temp;Humidity;BMP_temperature;BMP_pressure;BME280_temperature;BME280_humidity;BME280_pressure;Samples;Min_cycle;Max_cycle;Signal;HPM_P1;HPM_P2
2024/04/14 00:00:59;;;;;;;0.00;0.00;;;12.90;99.90;;;;;;5401065;26;20015;-62
2024/04/14 00:03:25;;;;;;;0.00;0.00;;;12.90;99.90;;;;;;5404088;26;20007;-62
2024/04/14 00:06:10;;;;;;;0.38;0.08;;;12.90;99.90;;;;;;5395213;26;20361;-62
2024/04/14 00:08:36;;;;;;;0.00;0.00;;;12.80;99.90;;;;;;5403377;26;20011;-62
2024/04/14 00:11:02;;;;;;;0.38;0.10;;;12.80;99.90;;;;;;5405043;26;20528;-62
2024/04/14 00:13:28;;;;;;;0.00;0.00;;;12.70;99.90;;;;;;5402072;26;20007;-61
2024/04/14 00:16:00;;;;;;;0.00;0.00;;;12.70;99.90;;;;;;5404047;26;20088;-61
2024/04/14 00:18:27;;;;;;;0.00;0.00;;;12.60;99.90;;;;;;5404067;26;20000;-64
2024/04/14 00:20:53;;;;;;;0.05;0.00;;;12.50;99.90;;;;;;5404251;26;20010;-63
2024/04/14 00:23:20;;;;;;;0.00;0.00;;;12.40;86.20;;;;;;5404565;26;20007;-63
2024/04/14 00:25:48;;;;;;;0.00;0.00;;;12.40;83.40;;;;;;5399973;26;20466;-64
2024/04/14 00:28:13;;;;;;;0.10;0.10;;;12.30;96.20;;;;;;5405399;26;20007;-63
2024/04/14 00:30:41;;;;;;;0.03;0.03;;;12.30;99.90;;;;;;5401591;26;20010;-63
2024/04/14 00:33:09;;;;;;;0.00;0.00;;;12.30;99.90;;;;;;5403819;26;20539;-63
2024/04/14 00:35:34;;;;;;;0.00;0.00;;;12.30;99.90;;;;;;5399521;26;20011;-63
2024/04/14 00:38:20;;;;;;;0.00;0.00;;;12.20;93.60;;;;;;5402953;26;20004;-63
2024/04/14 00:40:46;;;;;;;0.00;0.00;;;12.20;93.20;;;;;;5395788;26;20000;-63
2024/04/14 00:43:20;;;;;;;0.00;0.00;;;12.20;95.80;;;;;;5395874;26;20017;-63
2024/04/14 00:45:46;;;;;;;1.95;0.10;;;12.20;71.80;;;;;;5389827;26;20010;-63
2024/04/14 00:48:32;;;;;;;0.00;0.00;;;12.10;43.70;;;;;;5402446;26;20014;-63
2024/04/14 00:50:59;;;;;;;0.00;0.00;;;12.10;18.50;;;;;;5386788;26;19999;-63
2024/04/14 00:53:25;;;;;;;0.00;0.00;;;12.00;21.00;;;;;;5403496;26;20018;-63
2024/04/14 00:55:51;;;;;;;0.10;0.10;;;12.00;1.00;;;;;;5403496;26;20794;-63
2024/04/14 00:58:18;;;;;;;0.05;0.00;;;11.90;1.00;;;;;;5405138;26;20089;-63
2024/04/14 01:01:05;;;;;;;0.00;0.00;;;11.90;1.00;;;;;;5401979;26;19999;-63
2024/04/14 01:03:32;;;;;;;0.25;0.00;;;11.90;18.10;;;;;;5402325;26;20007;-63
2024/04/14 01:05:59;;;;;;;0.73;0.00;;;11.80;11.60;;;;;;5403732;26;20003;-63
2024/04/14 01:08:26;;;;;;;0.47;0.00;;;11.80;23.70;;;;;;5403989;26;20613;-63
2024/04/14 01:10:52;;;;;;;0.00;0.00;;;11.80;46.60;;;;;;5396875;26;20015;-63
2024/04/14 01:13:18;;;;;;;0.00;0.00;;;11.70;36.90;;;;;;5389926;26;20353;-63
2024/04/14 01:15:43;;;;;;;0.00;0.00;;;11.60;26.80;;;;;;5398590;26;20508;-64
2024/04/14 01:18:09;;;;;;;0.00;0.00;;;11.50;15.00;;;;;;5372823;26;20495;-63
2024/04/14 01:20:36;;;;;;;0.00;0.00;;;11.40;8.10;;;;;;5400836;26;20014;-63
2024/04/14 01:23:02;;;;;;;0.00;0.00;;;11.40;32.00;;;;;;5404336;26;20114;-63
2024/04/14 01:25:28;;;;;;;0.00;0.00;;;11.30;12.60;;;;;;5402935;26;20560;-63
2024/04/14 01:27:54;;;;;;;0.20;0.00;;;11.20;1.00;;;;;;5404285;26;20018;-63
2024/04/14 01:30:20;;;;;;;0.00;0.00;;;11.20;8.50;;;;;;5402803;26;20092;-63
2024/04/14 01:32:46;;;;;;;0.20;0.10;;;11.10;1.00;;;;;;5389566;26;20388;-64
2024/04/14 01:35:18;;;;;;;0.00;0.00;;;11.10;1.00;;;;;;5397514;26;20014;-63
2024/04/14 01:37:44;;;;;;;0.00;0.00;;;11.00;1.00;;;;;;5403484;26;20701;-63
2024/04/14 01:40:11;;;;;;;0.00;0.00;;;11.00;1.00;;;;;;5400813;26;19999;-63
2024/04/14 01:42:57;;;;;;;0.00;0.00;;;10.90;1.00;;;;;;5400906;26;20018;-63
2024/04/14 01:45:43;;;;;;;0.00;0.00;;;11.00;1.00;;;;;;5397602;26;20346;-63
2024/04/14 01:48:10;;;;;;;0.00;0.00;;;10.90;1.00;;;;;;5402611;26;20559;-63
2024/04/14 01:50:37;;;;;;;0.00;0.00;;;10.90;1.00;;;;;;5402371;26;20414;-63
2024/04/14 01:53:22;;;;;;;0.10;0.10;;;11.00;1.00;;;;;;5401878;26;20440;-63
2024/04/14 01:55:48;;;;;;;0.00;0.00;;;11.00;1.00;;;;;;5398660;26;19999;-62
2024/04/14 01:58:14;;;;;;;0.25;0.00;;;11.00;1.00;;;;;;5402859;26;20022;-63
2024/04/14 02:00:40;;;;;;;0.00;0.00;;;10.90;1.00;;;;;;5395386;26;20040;-63
2024/04/14 02:03:06;;;;;;;0.00;0.00;;;10.90;1.00;;;;;;5403624;26;20008;-63
2024/04/14 02:05:32;;;;;;;0.00;0.00;;;10.80;1.00;;;;;;5402585;26;20326;-63
2024/04/14 02:07:58;;;;;;;0.00;0.00;;;10.70;1.00;;;;;;5403936;26;20124;-63
2024/04/14 02:10:31;;;;;;;0.00;0.00;;;10.70;1.00;;;;;;5398350;26;20015;-63
2024/04/14 02:12:57;;;;;;;0.00;0.00;;;10.70;1.00;;;;;;5383976;26;20499;-63
2024/04/14 02:15:22;;;;;;;0.00;0.00;;;10.60;1.00;;;;;;5403135;26;19996;-63
2024/04/14 02:17:49;;;;;;;0.00;0.00;;;10.60;99.90;;;;;;5402300;26;20689;-63
2024/04/14 02:20:15;;;;;;;0.00;0.00;;;10.60;99.90;;;;;;5402521;26;19999;-63
2024/04/14 02:22:41;;;;;;;0.00;0.00;;;10.60;99.90;;;;;;5396174;26;20011;-63
2024/04/14 02:25:28;;;;;;;0.08;0.08;;;10.50;99.90;;;;;;5376350;26;20003;-63
2024/04/14 02:27:53;;;;;;;0.00;0.00;;;10.50;99.90;;;;;;5403347;26;20591;-62
2024/04/14 02:30:20;;;;;;;0.00;0.00;;;10.40;99.90;;;;;;5402584;26;20020;-63
2024/04/14 02:32:46;;;;;;;0.00;0.00;;;10.40;99.90;;;;;;5401956;26;20722;-63
2024/04/14 02:35:12;;;;;;;0.00;0.00;;;10.30;99.90;;;;;;5397830;26;20045;-63
2024/04/14 02:37:38;;;;;;;0.00;0.00;;;10.30;99.90;;;;;;5402955;26;20030;-63
2024/04/14 02:40:05;;;;;;;0.00;0.00;;;10.20;99.90;;;;;;5396609;26;19999;-63
2024/04/14 02:42:34;;;;;;;0.00;0.00;;;10.20;99.90;;;;;;5402965;26;20007;-63
2024/04/14 02:45:00;;;;;;;0.57;0.00;;;10.10;99.90;;;;;;5401304;26;20465;-63
2024/04/14 02:47:46;;;;;;;0.00;0.00;;;10.10;99.90;;;;;;5400601;26;20739;-63
2024/04/14 02:50:32;;;;;;;0.00;0.00;;;10.00;99.90;;;;;;5389100;26;20323;-63
2024/04/14 02:53:02;;;;;;;0.00;0.00;;;9.90;95.50;;;;;;5400879;26;20004;-63
2024/04/14 02:55:31;;;;;;;0.00;0.00;;;9.90;63.40;;;;;;5402787;26;20031;-63
2024/04/14 02:58:17;;;;;;;0.00;0.00;;;9.90;17.40;;;;;;5401014;26;20003;-63
2024/04/14 03:00:43;;;;;;;0.00;0.00;;;9.80;53.40;;;;;;5399941;26;20430;-62
2024/04/14 03:03:08;;;;;;;0.00;0.00;;;9.80;1.00;;;;;;5401761;26;20003;-62
2024/04/14 03:05:34;;;;;;;0.00;0.00;;;9.80;16.10;;;;;;5392101;26;20011;-63
2024/04/14 03:08:00;;;;;;;0.03;0.00;;;9.80;26.40;;;;;;5402145;26;20459;-63
2024/04/14 03:10:27;;;;;;;0.35;0.00;;;9.70;16.80;;;;;;5402222;26;20010;-63
2024/04/14 03:13:13;;;;;;;0.00;0.00;;;9.60;15.90;;;;;;5392578;26;20076;-63
2024/04/14 03:15:47;;;;;;;0.00;0.00;;;9.60;1.00;;;;;;5401170;26;20000;-62
2024/04/14 03:18:33;;;;;;;0.00;0.00;;;9.60;1.00;;;;;;5376101;26;20004;-63
2024/04/14 03:21:18;;;;;;;0.20;0.05;;;9.50;1.00;;;;;;5398891;26;20007;-62
2024/04/14 03:24:05;;;;;;;0.75;0.00;;;9.50;1.00;;;;;;5399649;26;20521;-63
2024/04/14 03:26:55;;;;;;;0.00;0.00;;;9.40;99.90;;;;;;5381806;26;20433;-63
2024/04/14 03:29:44;;;;;;;0.00;0.00;;;9.40;99.90;;;;;;5400213;26;20011;-63
2024/04/14 03:32:30;;;;;;;0.93;0.00;;;9.40;99.90;;;;;;5391202;26;20522;-62
2024/04/14 03:35:16;;;;;;;1.35;0.00;;;9.40;99.90;;;;;;5398977;26;20007;-63
2024/04/14 03:38:01;;;;;;;0.00;0.00;;;9.30;99.90;;;;;;5399745;26;20102;-62
2024/04/14 03:40:54;;;;;;;0.00;0.00;;;9.30;99.90;;;;;;5384962;26;20015;-61
2024/04/14 03:43:40;;;;;;;0.00;0.00;;;9.30;99.90;;;;;;5398274;26;20004;-61
2024/04/14 03:46:26;;;;;;;0.00;0.00;;;9.30;99.90;;;;;;5371022;26;20011;-61
2024/04/14 03:49:12;;;;;;;0.00;0.00;;;9.30;99.90;;;;;;5398950;26;20003;-61
2024/04/14 03:51:57;;;;;;;0.00;0.00;;;9.30;99.90;;;;;;5399268;26;20006;-61
2024/04/14 03:54:43;;;;;;;0.00;0.00;;;9.30;99.90;;;;;;5397963;26;20000;-60
2024/04/14 03:57:29;;;;;;;0.00;0.00;;;9.20;99.90;;;;;;5398182;26;20000;-61
2024/04/14 04:00:15;;;;;;;0.00;0.00;;;9.20;99.90;;;;;;5399430;26;20007;-60
2024/04/14 04:03:01;;;;;;;0.00;0.00;;;9.20;99.90;;;;;;5399490;26;20468;-61
2024/04/14 04:05:56;;;;;;;0.00;0.00;;;9.20;99.90;;;;;;5394338;26;20080;-60
2024/04/14 04:08:44;;;;;;;0.00;0.00;;;9.20;99.90;;;;;;5400230;26;20019;-60
2024/04/14 04:11:30;;;;;;;0.00;0.00;;;9.20;99.90;;;;;;5398067;26;20003;-60
2024/04/14 04:14:16;;;;;;;0.00;0.00;;;9.20;99.90;;;;;;5375645;26;20455;-60
2024/04/14 04:17:01;;;;;;;0.00;0.00;;;9.20;99.90;;;;;;5399986;26;20010;-60
2024/04/14 04:19:47;;;;;;;0.00;0.00;;;9.20;99.90;;;;;;5399563;26;20022;-61
2024/04/14 04:22:33;;;;;;;0.00;0.00;;;9.10;99.90;;;;;;5394209;26;20003;-61
2024/04/14 04:25:20;;;;;;;0.00;0.00;;;9.10;99.90;;;;;;5378776;26;20022;-61
2024/04/14 04:28:05;;;;;;;0.00;0.00;;;9.10;99.90;;;;;;5401180;26;20014;-62
2024/04/14 04:30:52;;;;;;;0.32;0.00;;;9.10;99.90;;;;;;5402296;26;19995;-62
2024/04/14 04:33:18;;;;;;;0.00;0.00;;;9.10;99.90;;;;;;5403060;26;20410;-62
2024/04/14 04:35:59;;;;;;;0.00;0.00;;;9.00;99.90;;;;;;5403284;26;20096;-63
2024/04/14 04:38:26;;;;;;;0.20;0.00;;;9.00;99.90;;;;;;5405259;26;20022;-62
2024/04/14 04:40:52;;;;;;;0.00;0.00;;;9.00;99.90;;;;;;5401524;26;20049;-62
2024/04/14 04:43:23;;;;;;;0.00;0.00;;;8.90;99.90;;;;;;5404185;26;20015;-63
2024/04/14 04:45:50;;;;;;;0.00;0.00;;;8.90;99.90;;;;;;5404436;26;20000;-62
2024/04/14 04:48:16;;;;;;;0.00;0.00;;;8.90;99.90;;;;;;5403302;26;20485;-61
2024/04/14 04:50:48;;;;;;;0.00;0.00;;;8.90;99.90;;;;;;5403616;26;20014;-60
2024/04/14 04:53:14;;;;;;;0.00;0.00;;;8.90;99.90;;;;;;5403036;26;20008;-61
2024/04/14 04:55:41;;;;;;;0.00;0.00;;;8.90;99.90;;;;;;5404562;26;20011;-61
2024/04/14 04:58:07;;;;;;;0.00;0.00;;;8.90;99.90;;;;;;5403703;26;20086;-60
2024/04/14 05:00:33;;;;;;;0.55;0.10;;;8.90;99.90;;;;;;5402409;26;20024;-60
2024/04/14 05:02:59;;;;;;;0.00;0.00;;;8.90;99.90;;;;;;5402031;26;20345;-60
2024/04/14 05:05:24;;;;;;;0.00;0.00;;;8.90;99.90;;;;;;5401789;26;20390;-60
2024/04/14 05:07:50;;;;;;;0.00;0.00;;;8.90;99.90;;;;;;5401899;26;20333;-61
2024/04/14 05:10:16;;;;;;;0.00;0.00;;;8.90;1.00;;;;;;5403052;26;20490;-60
2024/04/14 05:12:42;;;;;;;0.00;0.00;;;8.80;1.00;;;;;;5403750;26;20363;-60
2024/04/14 05:15:15;;;;;;;0.28;0.00;;;8.80;1.00;;;;;;5387704;26;20018;-60
2024/04/14 05:17:42;;;;;;;0.00;0.00;;;8.70;1.00;;;;;;5396597;26;20000;-60
2024/04/14 05:20:08;;;;;;;0.10;0.10;;;8.70;1.00;;;;;;5403840;26;20010;-60
2024/04/14 05:22:34;;;;;;;0.00;0.00;;;8.80;1.00;;;;;;5398721;26;20012;-61
2024/04/14 05:25:01;;;;;;;0.00;0.00;;;8.80;1.00;;;;;;5381717;26;20003;-60
2024/04/14 05:27:27;;;;;;;0.00;0.00;;;8.90;15.10;;;;;;5396017;26;20031;-61
2024/04/14 05:29:52;;;;;;;0.00;0.00;;;8.90;67.30;;;;;;5403206;26;20000;-60
2024/04/14 05:32:18;;;;;;;0.00;0.00;;;8.90;96.20;;;;;;5401008;26;20011;-60
2024/04/14 05:34:44;;;;;;;0.32;0.00;;;8.90;99.90;;;;;;5404088;26;20018;-60
2024/04/14 05:37:10;;;;;;;0.00;0.00;;;9.00;99.90;;;;;;5394544;26;19999;-61
2024/04/14 05:39:37;;;;;;;0.00;0.00;;;9.10;99.90;;;;;;5401947;26;20007;-60
2024/04/14 05:42:03;;;;;;;0.25;0.00;;;9.10;99.90;;;;;;5402745;26;20815;-60
2024/04/14 05:44:32;;;;;;;0.00;0.00;;;9.10;99.90;;;;;;5381502;26;20015;-60
2024/04/14 05:46:58;;;;;;;0.00;0.00;;;9.20;99.90;;;;;;5398749;26;20000;-60
2024/04/14 05:49:24;;;;;;;0.00;0.00;;;9.20;99.90;;;;;;5402028;26;20019;-60
2024/04/14 05:51:51;;;;;;;0.00;0.00;;;9.20;99.90;;;;;;5402403;26;20326;-61
2024/04/14 05:54:17;;;;;;;0.00;0.00;;;9.30;99.90;;;;;;5402949;26;20572;-60
2024/04/14 05:56:43;;;;;;;0.05;0.03;;;9.30;99.90;;;;;;5402843;26;20014;-60
2024/04/14 05:59:09;;;;;;;0.00;0.00;;;9.30;99.90;;;;;;5402358;26;20011;-60
2024/04/14 06:01:35;;;;;;;0.00;0.00;;;9.30;77.50;;;;;;5396254;26;20330;-60
2024/04/14 06:04:01;;;;;;;0.00;0.00;;;9.30;34.30;;;;;;5403956;26;20008;-61
2024/04/14 06:06:27;;;;;;;0.00;0.00;;;9.30;14.30;;;;;;5401813;26;20000;-60
2024/04/14 06:08:54;;;;;;;0.00;0.00;;;9.30;26.30;;;;;;5401163;26;20491;-60
2024/04/14 06:11:20;;;;;;;0.00;0.00;;;9.30;41.30;;;;;;5400056;26;20022;-60
2024/04/14 06:13:46;;;;;;;0.00;0.00;;;9.30;40.60;;;;;;5400268;26;20528;-62
2024/04/14 06:16:14;;;;;;;0.00;0.00;;;9.40;1.00;;;;;;5398671;26;20014;-62
2024/04/14 06:18:40;;;;;;;0.00;0.00;;;9.40;33.10;;;;;;5403643;26;20008;-62
2024/04/14 06:21:06;;;;;;;0.00;0.00;;;9.50;1.00;;;;;;5402956;26;19995;-63
2024/04/14 06:23:32;;;;;;;0.32;0.15;;;9.50;1.00;;;;;;5400404;26;20134;-63
2024/04/14 06:26:00;;;;;;;0.00;0.00;;;9.50;99.90;;;;;;5402660;26;20396;-62
2024/04/14 06:28:25;;;;;;;0.00;0.00;;;9.60;99.90;;;;;;5401839;26;20017;-62
2024/04/14 06:30:51;;;;;;;0.00;0.00;;;9.60;99.90;;;;;;5403071;26;20053;-62
2024/04/14 06:33:19;;;;;;;0.00;0.00;;;9.70;99.90;;;;;;5400254;26;20011;-62
2024/04/14 06:35:45;;;;;;;0.55;0.00;;;9.80;99.90;;;;;;5403066;26;20309;-62
2024/04/14 06:38:11;;;;;;;0.00;0.00;;;9.90;99.90;;;;;;5402255;26;20439;-62
2024/04/14 06:40:36;;;;;;;4.95;0.10;;;9.90;99.90;;;;;;5392289;26;20025;-62
2024/04/14 06:43:03;;;;;;;0.00;0.00;;;10.00;99.90;;;;;;5395859;26;19999;-62
2024/04/14 06:45:30;;;;;;;0.10;0.00;;;10.20;99.90;;;;;;5401126;26;20035;-62
2024/04/14 06:47:55;;;;;;;0.00;0.00;;;10.30;99.90;;;;;;5402934;26;20014;-62
2024/04/14 06:50:21;;;;;;;0.00;0.00;;;10.40;99.90;;;;;;5401820;26;20015;-62
2024/04/14 06:52:47;;;;;;;0.00;0.00;;;10.40;99.90;;;;;;5394799;26;20474;-62
2024/04/14 06:55:15;;;;;;;0.00;0.00;;;10.50;99.90;;;;;;5402262;26;20027;-62
2024/04/14 06:57:41;;;;;;;0.00;0.00;;;10.60;99.90;;;;;;5400389;26;20010;-62
2024/04/14 07:00:07;;;;;;;0.00;0.00;;;10.70;99.90;;;;;;5402624;26;20018;-62
2024/04/14 07:02:33;;;;;;;0.00;0.00;;;10.80;99.90;;;;;;5400709;26;20481;-62
2024/04/14 07:04:59;;;;;;;0.00;0.00;;;10.80;99.90;;;;;;5401306;26;20007;-63
2024/04/14 07:07:25;;;;;;;0.00;0.00;;;10.90;99.90;;;;;;5400681;26;20353;-63
2024/04/14 07:09:51;;;;;;;0.00;0.00;;;11.10;99.90;;;;;;5402132;26;20010;-63
2024/04/14 07:12:16;;;;;;;0.00;0.00;;;11.30;99.90;;;;;;5401380;26;19995;-62
2024/04/14 07:14:42;;;;;;;0.00;0.00;;;11.50;99.90;;;;;;5401911;26;20021;-62
2024/04/14 07:17:08;;;;;;;0.00;0.00;;;11.60;99.90;;;;;;5396212;26;20333;-62
2024/04/14 07:19:34;;;;;;;0.47;0.10;;;11.80;99.90;;;;;;5402035;26;20015;-62
2024/04/14 07:22:00;;;;;;;0.00;0.00;;;12.00;99.90;;;;;;5401632;26;20370;-62
2024/04/14 07:24:26;;;;;;;0.00;0.00;;;12.10;99.90;;;;;;5400989;26;20007;-62
2024/04/14 07:26:52;;;;;;;0.00;0.00;;;12.20;99.90;;;;;;5400012;26;20438;-63
2024/04/14 07:29:18;;;;;;;0.00;0.00;;;12.10;5.70;;;;;;5401166;26;20018;-63
2024/04/14 07:31:44;;;;;;;0.00;0.00;;;12.20;99.90;;;;;;5389340;26;20040;-63
2024/04/14 07:34:10;;;;;;;0.00;0.00;;;12.10;1.00;;;;;;5387607;26;20371;-63
2024/04/14 07:36:35;;;;;;;0.00;0.00;;;12.20;99.90;;;;;;5393323;26;20000;-63
2024/04/14 07:39:01;;;;;;;0.00;0.00;;;12.30;99.90;;;;;;5397978;26;20346;-63
2024/04/14 07:41:27;;;;;;;0.00;0.00;;;12.30;99.90;;;;;;5383615;26;20020;-63
2024/04/14 07:43:53;;;;;;;1.00;0.00;;;12.40;99.90;;;;;;5397586;26;20047;-63
2024/04/14 07:46:19;;;;;;;0.00;0.00;;;12.50;99.90;;;;;;5390774;26;20000;-63
2024/04/14 07:48:45;;;;;;;0.00;0.00;;;12.60;99.90;;;;;;5392000;26;20008;-63
2024/04/14 07:51:11;;;;;;;0.00;0.00;;;12.70;93.60;;;;;;5393572;26;20000;-63
2024/04/14 07:53:38;;;;;;;0.00;0.00;;;12.80;36.70;;;;;;5391919;26;20487;-63
2024/04/14 07:56:05;;;;;;;0.00;0.00;;;13.00;1.00;;;;;;5401147;26;20024;-63
2024/04/14 07:58:30;;;;;;;0.00;0.00;;;13.00;11.80;;;;;;5390827;26;20232;-63
2024/04/14 08:00:56;;;;;;;0.00;0.00;;;13.20;99.90;;;;;;5400704;26;19999;-63
2024/04/14 08:03:22;;;;;;;0.00;0.00;;;13.30;99.90;;;;;;5403104;26;19999;-63
2024/04/14 08:05:48;;;;;;;0.00;0.00;;;13.30;99.90;;;;;;5404187;26;20000;-63
2024/04/14 08:08:14;;;;;;;0.00;0.00;;;13.30;99.90;;;;;;5401229;26;20341;-63
2024/04/14 08:10:40;;;;;;;0.00;0.00;;;13.40;99.90;;;;;;5396779;26;20048;-63
2024/04/14 08:13:06;;;;;;;0.00;0.00;;;13.10;99.90;;;;;;5383008;26;20018;-63
2024/04/14 08:15:32;;;;;;;1.58;0.00;;;12.90;99.90;;;;;;5404374;26;20003;-63
2024/04/14 08:17:58;;;;;;;0.03;0.00;;;12.90;99.90;;;;;;5405004;26;20015;-63
2024/04/14 08:20:24;;;;;;;0.00;0.00;;;12.90;99.90;;;;;;5400741;26;20003;-63
2024/04/14 08:22:51;;;;;;;0.00;0.00;;;12.80;99.90;;;;;;5374841;26;20024;-63
2024/04/14 08:25:16;;;;;;;1.08;0.10;;;12.90;99.90;;;;;;5385451;26;20357;-63
2024/04/14 08:27:43;;;;;;;0.00;0.00;;;13.10;99.90;;;;;;5396298;26;20453;-63
2024/04/14 08:30:11;;;;;;;0.00;0.00;;;13.00;99.90;;;;;;5388787;26;20019;-63
2024/04/14 08:32:37;;;;;;;0.00;0.00;;;13.00;99.90;;;;;;5393693;26;19999;-63
2024/04/14 08:35:03;;;;;;;0.00;0.00;;;12.90;99.90;;;;;;5387385;26;20004;-63
2024/04/14 08:37:29;;;;;;;0.00;0.00;;;13.00;99.90;;;;;;5396747;26;20330;-63
2024/04/14 08:39:55;;;;;;;0.10;0.00;;;13.00;99.90;;;;;;5393247;26;20021;-63
2024/04/14 08:42:21;;;;;;;0.00;0.00;;;12.80;99.90;;;;;;5378250;26;20000;-63
2024/04/14 08:44:49;;;;;;;0.00;0.00;;;12.90;99.90;;;;;;5395548;26;20077;-63
2024/04/14 08:47:19;;;;;;;0.00;0.00;;;12.80;99.90;;;;;;5371728;26;20015;-63
2024/04/14 08:49:46;;;;;;;0.00;0.00;;;12.80;99.90;;;;;;5399033;26;20102;-63
2024/04/14 08:52:14;;;;;;;0.00;0.00;;;12.90;99.90;;;;;;5392082;26;20007;-63
2024/04/14 08:54:40;;;;;;;0.00;0.00;;;12.80;99.90;;;;;;5403640;26;20036;-63
2024/04/14 08:57:08;;;;;;;0.10;0.10;;;13.00;99.90;;;;;;5403756;26;19999;-63
2024/04/14 08:59:40;;;;;;;0.45;0.00;;;13.20;99.90;;;;;;5403208;26;20335;-63
2024/04/14 09:02:10;;;;;;;0.00;0.00;;;13.20;99.90;;;;;;5378508;26;20528;-63
2024/04/14 09:04:35;;;;;;;0.00;0.00;;;13.30;99.90;;;;;;5390439;26;20019;-64
2024/04/14 09:07:01;;;;;;;0.00;0.00;;;13.50;99.90;;;;;;5389660;26;20319;-63
2024/04/14 09:09:27;;;;;;;0.00;0.00;;;13.40;99.90;;;;;;5386629;26;20011;-63
2024/04/14 09:11:56;;;;;;;0.00;0.00;;;13.30;99.90;;;;;;5397859;26;19999;-63
2024/04/14 09:14:25;;;;;;;0.00;0.00;;;13.10;99.90;;;;;;5400282;26;20021;-63
2024/04/14 09:16:51;;;;;;;0.00;0.00;;;12.90;99.90;;;;;;5397008;26;20076;-63
2024/04/14 09:19:18;;;;;;;0.47;0.10;;;13.10;99.90;;;;;;5403629;26;19999;-64
2024/04/14 09:21:46;;;;;;;0.00;0.00;;;13.10;99.90;;;;;;5399517;26;19999;-63
2024/04/14 09:24:12;;;;;;;0.00;0.00;;;13.20;99.90;;;;;;5396012;26;20081;-63
2024/04/14 09:26:38;;;;;;;0.00;0.00;;;13.20;99.90;;;;;;5372737;26;20446;-63
2024/04/14 09:29:07;;;;;;;0.00;0.00;;;13.20;99.90;;;;;;5397611;26;20004;-63
2024/04/14 09:31:34;;;;;;;0.00;0.00;;;13.10;99.90;;;;;;5398484;26;20425;-63
2024/04/14 09:34:00;;;;;;;0.00;0.00;;;13.10;99.90;;;;;;5378203;26;20008;-63
2024/04/14 09:36:26;;;;;;;0.00;0.00;;;13.20;99.90;;;;;;5378399;26;20012;-63
2024/04/14 09:38:53;;;;;;;0.90;0.00;;;13.30;99.90;;;;;;5391513;26;20000;-63
2024/04/14 09:41:21;;;;;;;0.20;0.00;;;13.40;99.90;;;;;;5382001;26;20327;-63
2024/04/14 09:43:49;;;;;;;0.00;0.00;;;13.50;99.90;;;;;;5401151;26;20015;-63
2024/04/14 09:46:14;;;;;;;0.00;0.00;;;13.70;99.90;;;;;;5397661;26;20023;-63
2024/04/14 09:48:42;;;;;;;0.00;0.00;;;13.80;99.90;;;;;;5373913;26;20008;-62
2024/04/14 09:51:09;;;;;;;0.32;0.10;;;13.90;99.90;;;;;;5398475;26;20463;-63
2024/04/14 09:53:35;;;;;;;0.00;0.00;;;14.10;99.90;;;;;;5384682;26;20004;-63
2024/04/14 09:56:08;;;;;;;0.00;0.00;;;14.10;99.90;;;;;;5401607;26;20400;-63
2024/04/14 09:58:34;;;;;;;0.00;0.00;;;14.20;99.90;;;;;;5373460;26;20437;-62
2024/04/14 10:01:08;;;;;;;0.00;0.00;;;14.50;99.90;;;;;;5384727;26;20458;-63
2024/04/14 10:03:36;;;;;;;0.25;0.00;;;14.50;99.90;;;;;;5379862;26;20011;-63
2024/04/14 10:06:02;;;;;;;0.00;0.00;;;14.20;99.90;;;;;;5392309;26;20022;-63
2024/04/14 10:08:33;;;;;;;0.00;0.00;;;14.00;99.90;;;;;;5398394;26;19999;-63
2024/04/14 10:11:03;;;;;;;0.00;0.00;;;14.00;99.90;;;;;;5399816;26;20004;-63
2024/04/14 10:13:29;;;;;;;0.20;0.05;;;14.20;99.90;;;;;;5402607;26;20010;-63
2024/04/14 10:15:59;;;;;;;0.00;0.00;;;14.50;99.90;;;;;;5402613;26;20008;-63
2024/04/14 10:18:25;;;;;;;0.00;0.00;;;14.60;99.90;;;;;;5401672;26;20000;-63
2024/04/14 10:20:55;;;;;;;0.00;0.00;;;14.80;99.90;;;;;;5402194;26;20007;-62
2024/04/14 10:23:21;;;;;;;0.00;0.00;;;14.90;99.90;;;;;;5402732;26;20017;-63
2024/04/14 10:25:49;;;;;;;0.00;0.00;;;15.00;99.90;;;;;;5388264;26;20492;-63
2024/04/14 10:28:16;;;;;;;0.00;0.00;;;15.10;99.90;;;;;;5398053;26;20088;-62
2024/04/14 10:30:44;;;;;;;0.00;0.00;;;15.10;99.90;;;;;;5395498;26;20011;-63
2024/04/14 10:33:31;;;;;;;0.52;0.10;;;15.30;99.90;;;;;;5392680;26;20044;-62
2024/04/14 10:36:24;;;;;;;0.13;0.13;;;15.30;99.90;;;;;;5388280;26;20015;-63
2024/04/14 10:38:50;;;;;;;0.28;0.03;;;15.60;99.90;;;;;;5390100;26;20010;-62
2024/04/14 10:41:16;;;;;;;0.00;0.00;;;15.70;99.90;;;;;;5388203;26;20030;-63
2024/04/14 10:43:43;;;;;;;0.00;0.00;;;15.60;99.90;;;;;;5388931;26;20003;-63
2024/04/14 10:46:10;;;;;;;0.00;0.00;;;15.40;99.90;;;;;;5394799;26;20009;-63
2024/04/14 10:48:42;;;;;;;0.00;0.00;;;15.40;99.90;;;;;;5392447;26;20306;-63
2024/04/14 10:51:07;;;;;;;0.00;0.00;;;15.40;99.90;;;;;;5399774;26;19999;-63
2024/04/14 10:53:34;;;;;;;0.00;0.00;;;15.40;99.90;;;;;;5394050;26;20043;-64
2024/04/14 10:56:00;;;;;;;0.10;0.08;;;15.20;99.90;;;;;;5395668;26;20015;-62
2024/04/14 10:58:30;;;;;;;0.00;0.00;;;15.20;99.90;;;;;;5394669;26;20000;-63
2024/04/14 11:00:56;;;;;;;0.00;0.00;;;15.10;99.90;;;;;;5396258;26;20000;-63
2024/04/14 11:03:23;;;;;;;0.00;0.00;;;14.90;99.90;;;;;;5393557;26;20006;-60
2024/04/14 11:05:50;;;;;;;0.00;0.00;;;14.70;99.90;;;;;;5378180;26;20000;-60
2024/04/14 11:08:16;;;;;;;0.00;0.00;;;14.80;99.90;;;;;;5402081;26;20031;-61
2024/04/14 11:10:43;;;;;;;0.03;0.03;;;14.90;99.90;;;;;;5395012;26;20000;-60
2024/04/14 11:13:12;;;;;;;0.00;0.00;;;14.70;99.90;;;;;;5401786;26;20019;-60
2024/04/14 11:15:38;;;;;;;0.00;0.00;;;14.40;99.90;;;;;;5401766;26;20003;-60
2024/04/14 11:18:04;;;;;;;0.30;0.10;;;14.20;99.90;;;;;;5401293;26;20572;-61
2024/04/14 11:20:30;;;;;;;0.00;0.00;;;14.10;99.90;;;;;;5401996;26;20000;-60
2024/04/14 11:23:01;;;;;;;0.25;0.00;;;14.10;99.90;;;;;;5401341;26;20007;-60
2024/04/14 11:25:27;;;;;;;0.00;0.00;;;14.20;99.90;;;;;;5401679;26;20018;-60
2024/04/14 11:27:54;;;;;;;0.00;0.00;;;14.40;99.90;;;;;;5401868;26;20434;-60
2024/04/14 11:30:20;;;;;;;0.00;0.00;;;14.60;99.90;;;;;;5400906;26;20007;-60
2024/04/14 11:32:47;;;;;;;0.00;0.00;;;14.30;99.90;;;;;;5405465;26;20017;-60
2024/04/14 11:35:13;;;;;;;0.00;0.00;;;14.00;99.90;;;;;;5402089;26;20436;-60
2024/04/14 11:37:44;;;;;;;0.10;0.08;;;14.10;99.90;;;;;;5406229;26;20444;-60
2024/04/14 11:40:14;;;;;;;0.10;0.10;;;14.20;99.90;;;;;;5392311;26;20065;-60
2024/04/14 11:42:40;;;;;;;0.10;0.10;;;14.20;99.90;;;;;;5405295;26;20008;-60
2024/04/14 11:45:09;;;;;;;0.00;0.00;;;14.30;99.90;;;;;;5401977;26;20039;-60
2024/04/14 11:47:35;;;;;;;0.05;0.00;;;14.50;99.90;;;;;;5405299;26;20008;-60
2024/04/14 11:50:01;;;;;;;0.00;0.00;;;14.70;99.90;;;;;;5404822;26;20386;-60
2024/04/14 11:52:27;;;;;;;0.00;0.00;;;14.80;99.90;;;;;;5403737;26;20008;-60
2024/04/14 11:54:54;;;;;;;2.42;0.00;;;14.70;99.90;;;;;;5400328;26;20003;-60
2024/04/14 11:57:21;;;;;;;0.00;0.00;;;14.70;99.90;;;;;;5404695;26;20774;-60
2024/04/14 11:59:47;;;;;;;0.00;0.00;;;15.00;99.90;;;;;;5403556;26;20364;-60
2024/04/14 12:02:13;;;;;;;0.00;0.00;;;15.20;99.90;;;;;;5404072;26;20353;-60
2024/04/14 12:04:39;;;;;;;0.00;0.00;;;15.10;99.90;;;;;;5402049;26;19999;-60
2024/04/14 12:07:04;;;;;;;0.00;0.00;;;15.00;99.90;;;;;;5399856;26;20026;-60
2024/04/14 12:09:30;;;;;;;0.00;0.00;;;14.90;99.90;;;;;;5400494;26;19996;-60
2024/04/14 12:11:56;;;;;;;0.00;0.00;;;14.80;99.90;;;;;;5403920;26;20015;-60
2024/04/14 12:14:22;;;;;;;0.00;0.00;;;14.40;99.90;;;;;;5403943;26;20011;-59
2024/04/14 12:16:48;;;;;;;0.00;0.00;;;14.20;99.90;;;;;;5402795;26;20011;-60
2024/04/14 12:19:13;;;;;;;0.00;0.00;;;13.90;99.90;;;;;;5400530;26;20007;-60
2024/04/14 12:21:39;;;;;;;0.00;0.00;;;13.70;99.90;;;;;;5383498;26;20007;-60
2024/04/14 12:24:06;;;;;;;0.10;0.00;;;13.70;99.90;;;;;;5402939;26;20507;-60
2024/04/14 12:26:33;;;;;;;0.10;0.00;;;13.80;99.90;;;;;;5380016;26;20022;-60
2024/04/14 12:28:59;;;;;;;0.00;0.00;;;14.10;99.90;;;;;;5405018;26;20416;-60
2024/04/14 12:31:25;;;;;;;0.00;0.00;;;14.40;99.90;;;;;;5402744;26;20462;-60
2024/04/14 12:33:52;;;;;;;0.00;0.00;;;14.20;99.90;;;;;;5404148;26;20867;-60
2024/04/14 12:36:17;;;;;;;0.00;0.00;;;13.90;99.90;;;;;;5403693;26;20000;-60
2024/04/14 12:38:43;;;;;;;0.00;0.00;;;13.60;99.90;;;;;;5403933;26;20003;-60
2024/04/14 12:41:09;;;;;;;0.00;0.00;;;13.70;99.90;;;;;;5403059;26;20080;-60
2024/04/14 12:43:35;;;;;;;0.00;0.00;;;13.90;99.90;;;;;;5403704;26;20397;-60
2024/04/14 12:46:01;;;;;;;0.10;0.10;;;13.90;99.90;;;;;;5404047;26;20010;-60
2024/04/14 12:48:27;;;;;;;0.00;0.00;;;13.60;99.90;;;;;;5403427;26;20331;-60
2024/04/14 12:50:53;;;;;;;0.10;0.00;;;13.40;99.90;;;;;;5393894;26;20006;-60
2024/04/14 12:53:20;;;;;;;0.10;0.10;;;13.70;99.90;;;;;;5402971;26;20055;-60
2024/04/14 12:55:46;;;;;;;0.00;0.00;;;13.90;99.90;;;;;;5390189;26;20493;-60
2024/04/14 12:58:13;;;;;;;0.00;0.00;;;14.10;99.90;;;;;;5400650;26;20007;-60
2024/04/14 13:00:40;;;;;;;0.00;0.00;;;14.20;99.90;;;;;;5399684;26;19999;-60